sensor_id;sensor_type;location;lat;lon;timestamp;P1;durP1;ratioP1;P2;durP2;ratioP2
10275;SDS011;5183;51.190;6.820;2022-12-16T00:01:04;83.43;;;45.33;;
10275;SDS011;5183;51.190;6.820;2022-12-16T00:03:32;88.70;;;47.77;;
10275;SDS011;5183;51.190;6.820;2022-12-16T00:05:59;87.20;;;47.30;;
10275;SDS011;5183;51.190;6.820;2022-12-16T00:08:28;85.23;;;46.27;;
10275;SDS011;5183;51.190;6.820;2022-12-16T00:10:58;86.27;;;47.00;;
10275;SDS011;5183;51.190;6.820;2022-12-16T00:13:26;84.80;;;45.83;;
10275;SDS011;5183;51.190;6.820;2022-12-16T00:15:54;86.53;;;46.43;;
10275;SDS011;5183;51.190;6.820;2022-12-16T00:18:21;87.60;;;47.53;;
10275;SDS011;5183;51.190;6.820;2022-12-16T00:20:48;84.93;;;46.47;;
10275;SDS011;5183;51.190;6.820;2022-12-16T00:23:18;82.87;;;46.80;;
10275;SDS011;5183;51.190;6.820;2022-12-16T00:25:47;84.97;;;47.13;;
10275;SDS011;5183;51.190;6.820;2022-12-16T00:28:14;86.67;;;46.27;;
10275;SDS011;5183;51.190;6.820;2022-12-16T00:30:42;84.10;;;46.20;;
10275;SDS011;5183;51.190;6.820;2022-12-16T00:33:10;84.30;;;46.33;;
10275;SDS011;5183;51.190;6.820;2022-12-16T00:35:37;90.80;;;47.63;;
10275;SDS011;5183;51.190;6.820;2022-12-16T00:38:04;90.27;;;47.80;;
10275;SDS011;5183;51.190;6.820;2022-12-16T00:40:30;89.70;;;49.30;;
10275;SDS011;5183;51.190;6.820;2022-12-16T00:42:59;89.83;;;48.90;;
10275;SDS011;5183;51.190;6.820;2022-12-16T00:45:26;99.07;;;50.77;;
10275;SDS011;5183;51.190;6.820;2022-12-16T00:47:53;89.13;;;48.47;;
10275;SDS011;5183;51.190;6.820;2022-12-16T00:50:20;92.87;;;49.00;;
10275;SDS011;5183;51.190;6.820;2022-12-16T00:52:47;95.03;;;50.10;;
10275;SDS011;5183;51.190;6.820;2022-12-16T00:55:14;90.13;;;48.23;;
10275;SDS011;5183;51.190;6.820;2022-12-16T00:57:42;83.73;;;46.70;;
10275;SDS011;5183;51.190;6.820;2022-12-16T01:00:11;96.03;;;51.23;;
10275;SDS011;5183;51.190;6.820;2022-12-16T01:02:40;91.23;;;50.17;;
10275;SDS011;5183;51.190;6.820;2022-12-16T01:05:07;97.97;;;50.17;;
10275;SDS011;5183;51.190;6.820;2022-12-16T01:07:35;92.80;;;50.10;;
10275;SDS011;5183;51.190;6.820;2022-12-16T01:10:03;93.50;;;48.87;;
10275;SDS011;5183;51.190;6.820;2022-12-16T01:12:30;93.60;;;49.83;;
10275;SDS011;5183;51.190;6.820;2022-12-16T01:14:57;92.17;;;48.60;;
10275;SDS011;5183;51.190;6.820;2022-12-16T01:17:26;89.63;;;48.03;;
10275;SDS011;5183;51.190;6.820;2022-12-16T01:19:53;96.03;;;49.60;;
10275;SDS011;5183;51.190;6.820;2022-12-16T01:22:20;91.70;;;48.70;;
10275;SDS011;5183;51.190;6.820;2022-12-16T01:24:47;91.57;;;48.40;;
10275;SDS011;5183;51.190;6.820;2022-12-16T01:27:14;86.33;;;48.40;;
10275;SDS011;5183;51.190;6.820;2022-12-16T01:29:41;85.20;;;46.97;;
10275;SDS011;5183;51.190;6.820;2022-12-16T01:32:09;89.13;;;48.33;;
10275;SDS011;5183;51.190;6.820;2022-12-16T01:34:39;94.07;;;50.10;;
10275;SDS011;5183;51.190;6.820;2022-12-16T01:37:06;87.30;;;48.63;;
10275;SDS011;5183;51.190;6.820;2022-12-16T01:39:36;91.23;;;47.97;;
10275;SDS011;5183;51.190;6.820;2022-12-16T01:42:03;88.90;;;48.67;;
10275;SDS011;5183;51.190;6.820;2022-12-16T01:44:32;88.70;;;47.50;;
10275;SDS011;5183;51.190;6.820;2022-12-16T01:47:01;83.30;;;47.27;;
10275;SDS011;5183;51.190;6.820;2022-12-16T01:49:33;89.63;;;47.53;;
10275;SDS011;5183;51.190;6.820;2022-12-16T01:52:04;93.77;;;49.57;;
10275;SDS011;5183;51.190;6.820;2022-12-16T01:54:35;89.77;;;48.43;;
10275;SDS011;5183;51.190;6.820;2022-12-16T01:57:05;89.73;;;48.90;;
10275;SDS011;5183;51.190;6.820;2022-12-16T01:59:37;87.07;;;49.23;;
10275;SDS011;5183;51.190;6.820;2022-12-16T02:02:06;84.27;;;47.93;;
10275;SDS011;5183;51.190;6.820;2022-12-16T02:04:33;86.87;;;48.27;;
10275;SDS011;5183;51.190;6.820;2022-12-16T02:07:22;94.13;;;49.73;;
10275;SDS011;5183;51.190;6.820;2022-12-16T02:09:49;97.53;;;50.37;;
10275;SDS011;5183;51.190;6.820;2022-12-16T02:12:18;93.77;;;49.73;;
10275;SDS011;5183;51.190;6.820;2022-12-16T02:14:58;95.70;;;51.83;;
10275;SDS011;5183;51.190;6.820;2022-12-16T02:17:43;96.03;;;50.87;;
10275;SDS011;5183;51.190;6.820;2022-12-16T02:20:32;95.83;;;49.67;;
10275;SDS011;5183;51.190;6.820;2022-12-16T02:26:33;92.73;;;48.43;;
10275;SDS011;5183;51.190;6.820;2022-12-16T02:29:35;84.77;;;45.70;;
10275;SDS011;5183;51.190;6.820;2022-12-16T02:32:18;85.93;;;46.77;;
10275;SDS011;5183;51.190;6.820;2022-12-16T02:34:53;83.63;;;46.83;;
10275;SDS011;5183;51.190;6.820;2022-12-16T02:37:30;86.37;;;46.23;;
10275;SDS011;5183;51.190;6.820;2022-12-16T02:40:05;86.30;;;46.53;;
10275;SDS011;5183;51.190;6.820;2022-12-16T02:42:37;93.17;;;46.27;;
10275;SDS011;5183;51.190;6.820;2022-12-16T02:45:11;83.17;;;45.83;;
10275;SDS011;5183;51.190;6.820;2022-12-16T02:47:43;80.27;;;44.13;;
10275;SDS011;5183;51.190;6.820;2022-12-16T02:50:14;77.87;;;45.37;;
10275;SDS011;5183;51.190;6.820;2022-12-16T02:52:45;85.37;;;44.73;;
10275;SDS011;5183;51.190;6.820;2022-12-16T02:55:12;86.07;;;46.17;;
10275;SDS011;5183;51.190;6.820;2022-12-16T02:57:43;78.73;;;44.40;;
10275;SDS011;5183;51.190;6.820;2022-12-16T03:00:25;85.20;;;45.53;;
10275;SDS011;5183;51.190;6.820;2022-12-16T03:02:57;77.87;;;43.37;;
10275;SDS011;5183;51.190;6.820;2022-12-16T03:05:28;81.10;;;46.03;;
10275;SDS011;5183;51.190;6.820;2022-12-16T03:07:58;84.77;;;45.53;;
10275;SDS011;5183;51.190;6.820;2022-12-16T03:10:29;85.33;;;46.77;;
10275;SDS011;5183;51.190;6.820;2022-12-16T03:13:00;80.43;;;45.00;;
10275;SDS011;5183;51.190;6.820;2022-12-16T03:15:28;84.00;;;45.40;;
10275;SDS011;5183;51.190;6.820;2022-12-16T03:17:59;85.23;;;45.17;;
10275;SDS011;5183;51.190;6.820;2022-12-16T03:20:27;83.17;;;45.07;;
10275;SDS011;5183;51.190;6.820;2022-12-16T03:22:59;75.23;;;43.90;;
10275;SDS011;5183;51.190;6.820;2022-12-16T03:25:30;81.70;;;42.90;;
10275;SDS011;5183;51.190;6.820;2022-12-16T03:28:01;78.33;;;43.60;;
10275;SDS011;5183;51.190;6.820;2022-12-16T03:30:37;76.10;;;42.67;;
10275;SDS011;5183;51.190;6.820;2022-12-16T03:33:11;78.03;;;44.07;;
10275;SDS011;5183;51.190;6.820;2022-12-16T03:35:47;80.07;;;44.20;;
10275;SDS011;5183;51.190;6.820;2022-12-16T03:38:17;78.47;;;43.90;;
10275;SDS011;5183;51.190;6.820;2022-12-16T03:40:46;82.30;;;44.37;;
10275;SDS011;5183;51.190;6.820;2022-12-16T03:43:14;79.63;;;43.20;;
10275;SDS011;5183;51.190;6.820;2022-12-16T03:45:42;79.83;;;44.17;;
10275;SDS011;5183;51.190;6.820;2022-12-16T03:48:12;79.27;;;43.87;;
10275;SDS011;5183;51.190;6.820;2022-12-16T03:50:41;80.13;;;43.53;;
10275;SDS011;5183;51.190;6.820;2022-12-16T03:53:08;74.53;;;43.20;;
10275;SDS011;5183;51.190;6.820;2022-12-16T03:55:35;75.53;;;41.70;;
10275;SDS011;5183;51.190;6.820;2022-12-16T03:58:02;80.27;;;43.90;;
10275;SDS011;5183;51.190;6.820;2022-12-16T04:00:28;78.60;;;43.73;;
10275;SDS011;5183;51.190;6.820;2022-12-16T04:02:55;80.03;;;42.50;;
10275;SDS011;5183;51.190;6.820;2022-12-16T04:05:23;71.57;;;41.60;;
10275;SDS011;5183;51.190;6.820;2022-12-16T04:07:50;72.73;;;42.13;;
10275;SDS011;5183;51.190;6.820;2022-12-16T04:10:17;78.23;;;43.00;;
10275;SDS011;5183;51.190;6.820;2022-12-16T04:13:06;70.67;;;42.47;;
10275;SDS011;5183;51.190;6.820;2022-12-16T04:15:51;72.53;;;41.47;;
10275;SDS011;5183;51.190;6.820;2022-12-16T04:18:36;79.07;;;42.43;;
10275;SDS011;5183;51.190;6.820;2022-12-16T04:21:23;79.17;;;41.70;;
10275;SDS011;5183;51.190;6.820;2022-12-16T04:24:08;76.90;;;42.07;;
10275;SDS011;5183;51.190;6.820;2022-12-16T04:26:44;67.47;;;40.50;;
10275;SDS011;5183;51.190;6.820;2022-12-16T04:29:28;76.13;;;42.50;;
10275;SDS011;5183;51.190;6.820;2022-12-16T04:31:55;74.97;;;41.83;;
10275;SDS011;5183;51.190;6.820;2022-12-16T04:34:23;71.97;;;40.97;;
10275;SDS011;5183;51.190;6.820;2022-12-16T04:36:55;74.07;;;40.70;;
10275;SDS011;5183;51.190;6.820;2022-12-16T04:39:41;72.23;;;40.93;;
10275;SDS011;5183;51.190;6.820;2022-12-16T04:42:25;77.50;;;43.20;;
10275;SDS011;5183;51.190;6.820;2022-12-16T04:45:09;76.27;;;42.53;;
10275;SDS011;5183;51.190;6.820;2022-12-16T04:47:54;75.77;;;43.50;;
10275;SDS011;5183;51.190;6.820;2022-12-16T04:50:39;75.57;;;43.00;;
10275;SDS011;5183;51.190;6.820;2022-12-16T04:53:24;74.13;;;42.23;;
10275;SDS011;5183;51.190;6.820;2022-12-16T04:56:09;82.03;;;44.20;;
10275;SDS011;5183;51.190;6.820;2022-12-16T04:58:54;82.97;;;46.27;;
10275;SDS011;5183;51.190;6.820;2022-12-16T05:01:37;76.83;;;44.30;;
10275;SDS011;5183;51.190;6.820;2022-12-16T05:04:21;79.80;;;44.50;;
10275;SDS011;5183;51.190;6.820;2022-12-16T05:07:17;81.13;;;44.00;;
10275;SDS011;5183;51.190;6.820;2022-12-16T05:10:03;76.97;;;43.03;;
10275;SDS011;5183;51.190;6.820;2022-12-16T05:12:48;78.13;;;43.00;;
10275;SDS011;5183;51.190;6.820;2022-12-16T05:15:37;79.27;;;45.17;;
10275;SDS011;5183;51.190;6.820;2022-12-16T05:18:21;82.57;;;45.50;;
10275;SDS011;5183;51.190;6.820;2022-12-16T05:21:17;72.87;;;42.67;;
10275;SDS011;5183;51.190;6.820;2022-12-16T05:24:10;76.53;;;43.67;;
10275;SDS011;5183;51.190;6.820;2022-12-16T05:26:55;71.17;;;40.70;;
10275;SDS011;5183;51.190;6.820;2022-12-16T05:29:39;71.43;;;40.50;;
10275;SDS011;5183;51.190;6.820;2022-12-16T05:32:24;73.83;;;41.47;;
10275;SDS011;5183;51.190;6.820;2022-12-16T05:35:08;75.33;;;42.53;;
10275;SDS011;5183;51.190;6.820;2022-12-16T05:37:52;72.20;;;39.47;;
10275;SDS011;5183;51.190;6.820;2022-12-16T05:40:36;76.10;;;42.00;;
10275;SDS011;5183;51.190;6.820;2022-12-16T05:43:21;79.30;;;44.10;;
10275;SDS011;5183;51.190;6.820;2022-12-16T05:46:08;72.50;;;40.57;;
10275;SDS011;5183;51.190;6.820;2022-12-16T05:48:57;80.03;;;42.57;;
10275;SDS011;5183;51.190;6.820;2022-12-16T05:51:42;70.73;;;40.70;;
10275;SDS011;5183;51.190;6.820;2022-12-16T05:54:29;74.67;;;42.17;;
10275;SDS011;5183;51.190;6.820;2022-12-16T05:57:13;69.03;;;40.57;;
10275;SDS011;5183;51.190;6.820;2022-12-16T05:59:58;67.03;;;39.67;;
10275;SDS011;5183;51.190;6.820;2022-12-16T06:02:43;71.63;;;40.37;;
10275;SDS011;5183;51.190;6.820;2022-12-16T06:05:27;69.93;;;40.13;;
10275;SDS011;5183;51.190;6.820;2022-12-16T06:08:11;70.73;;;40.90;;
10275;SDS011;5183;51.190;6.820;2022-12-16T06:10:55;71.23;;;40.27;;
10275;SDS011;5183;51.190;6.820;2022-12-16T06:13:51;74.03;;;40.00;;
10275;SDS011;5183;51.190;6.820;2022-12-16T06:16:37;74.23;;;40.80;;
10275;SDS011;5183;51.190;6.820;2022-12-16T06:19:20;71.53;;;41.13;;
10275;SDS011;5183;51.190;6.820;2022-12-16T06:22:04;73.67;;;42.00;;
10275;SDS011;5183;51.190;6.820;2022-12-16T06:24:48;79.87;;;43.93;;
10275;SDS011;5183;51.190;6.820;2022-12-16T06:27:32;74.30;;;41.70;;
10275;SDS011;5183;51.190;6.820;2022-12-16T06:30:17;71.37;;;41.30;;
10275;SDS011;5183;51.190;6.820;2022-12-16T06:33:02;73.97;;;42.27;;
10275;SDS011;5183;51.190;6.820;2022-12-16T06:35:47;79.57;;;41.73;;
10275;SDS011;5183;51.190;6.820;2022-12-16T06:38:31;76.53;;;43.17;;
10275;SDS011;5183;51.190;6.820;2022-12-16T06:41:15;68.97;;;41.63;;
10275;SDS011;5183;51.190;6.820;2022-12-16T06:43:59;79.73;;;42.87;;
10275;SDS011;5183;51.190;6.820;2022-12-16T06:46:44;76.07;;;42.87;;
10275;SDS011;5183;51.190;6.820;2022-12-16T06:49:30;76.10;;;42.67;;
10275;SDS011;5183;51.190;6.820;2022-12-16T06:52:14;75.70;;;41.63;;
10275;SDS011;5183;51.190;6.820;2022-12-16T06:54:59;79.90;;;42.63;;
10275;SDS011;5183;51.190;6.820;2022-12-16T06:57:43;78.63;;;42.10;;
10275;SDS011;5183;51.190;6.820;2022-12-16T07:00:24;74.60;;;42.40;;
10275;SDS011;5183;51.190;6.820;2022-12-16T07:03:08;81.90;;;42.90;;
10275;SDS011;5183;51.190;6.820;2022-12-16T07:05:54;71.87;;;41.27;;
10275;SDS011;5183;51.190;6.820;2022-12-16T07:08:38;74.23;;;40.20;;
10275;SDS011;5183;51.190;6.820;2022-12-16T07:11:27;73.33;;;40.80;;
10275;SDS011;5183;51.190;6.820;2022-12-16T07:14:12;69.20;;;39.03;;
10275;SDS011;5183;51.190;6.820;2022-12-16T07:16:56;72.63;;;40.10;;
10275;SDS011;5183;51.190;6.820;2022-12-16T07:19:40;75.53;;;42.13;;
10275;SDS011;5183;51.190;6.820;2022-12-16T07:22:25;76.03;;;41.33;;
10275;SDS011;5183;51.190;6.820;2022-12-16T07:25:09;70.43;;;45.85;;
10275;SDS011;5183;51.190;6.820;2022-12-16T07:27:54;71.43;;;41.60;;
10275;SDS011;5183;51.190;6.820;2022-12-16T07:30:38;76.10;;;45.07;;
10275;SDS011;5183;51.190;6.820;2022-12-16T07:33:22;72.43;;;43.60;;
10275;SDS011;5183;51.190;6.820;2022-12-16T07:36:07;76.83;;;44.10;;
10275;SDS011;5183;51.190;6.820;2022-12-16T07:38:52;74.47;;;44.27;;
10275;SDS011;5183;51.190;6.820;2022-12-16T07:41:37;70.67;;;41.37;;
10275;SDS011;5183;51.190;6.820;2022-12-16T07:44:21;78.33;;;43.40;;
10275;SDS011;5183;51.190;6.820;2022-12-16T07:47:05;75.07;;;42.07;;
10275;SDS011;5183;51.190;6.820;2022-12-16T07:49:49;74.43;;;41.87;;
10275;SDS011;5183;51.190;6.820;2022-12-16T07:52:33;72.47;;;41.97;;
10275;SDS011;5183;51.190;6.820;2022-12-16T07:55:19;80.53;;;44.33;;
10275;SDS011;5183;51.190;6.820;2022-12-16T07:58:03;78.27;;;44.93;;
10275;SDS011;5183;51.190;6.820;2022-12-16T08:00:47;75.67;;;42.17;;
10275;SDS011;5183;51.190;6.820;2022-12-16T08:03:31;75.53;;;43.30;;
10275;SDS011;5183;51.190;6.820;2022-12-16T08:06:15;74.63;;;42.83;;
10275;SDS011;5183;51.190;6.820;2022-12-16T08:09:05;82.20;;;45.07;;
10275;SDS011;5183;51.190;6.820;2022-12-16T08:11:47;77.73;;;43.80;;
10275;SDS011;5183;51.190;6.820;2022-12-16T08:14:31;81.70;;;43.57;;
10275;SDS011;5183;51.190;6.820;2022-12-16T08:17:15;83.17;;;44.63;;
10275;SDS011;5183;51.190;6.820;2022-12-16T08:19:59;76.87;;;43.87;;
10275;SDS011;5183;51.190;6.820;2022-12-16T08:22:43;74.97;;;42.97;;
10275;SDS011;5183;51.190;6.820;2022-12-16T08:25:27;77.67;;;45.37;;
10275;SDS011;5183;51.190;6.820;2022-12-16T08:28:13;86.67;;;45.97;;
10275;SDS011;5183;51.190;6.820;2022-12-16T08:30:57;83.13;;;45.70;;
10275;SDS011;5183;51.190;6.820;2022-12-16T08:33:41;78.90;;;44.47;;
10275;SDS011;5183;51.190;6.820;2022-12-16T08:36:25;87.57;;;45.30;;
10275;SDS011;5183;51.190;6.820;2022-12-16T08:39:09;86.20;;;45.33;;
10275;SDS011;5183;51.190;6.820;2022-12-16T08:41:54;83.63;;;45.50;;
10275;SDS011;5183;51.190;6.820;2022-12-16T08:44:39;78.83;;;44.57;;
10275;SDS011;5183;51.190;6.820;2022-12-16T08:47:23;87.97;;;46.30;;
10275;SDS011;5183;51.190;6.820;2022-12-16T08:50:07;84.97;;;45.87;;
10275;SDS011;5183;51.190;6.820;2022-12-16T08:52:52;80.13;;;44.93;;
10275;SDS011;5183;51.190;6.820;2022-12-16T08:55:36;90.63;;;49.17;;
10275;SDS011;5183;51.190;6.820;2022-12-16T08:58:20;86.23;;;47.50;;
10275;SDS011;5183;51.190;6.820;2022-12-16T09:01:14;81.83;;;45.83;;
10275;SDS011;5183;51.190;6.820;2022-12-16T09:03:58;79.87;;;45.93;;
10275;SDS011;5183;51.190;6.820;2022-12-16T09:06:42;80.77;;;45.97;;
10275;SDS011;5183;51.190;6.820;2022-12-16T09:09:26;84.60;;;45.77;;
10275;SDS011;5183;51.190;6.820;2022-12-16T09:12:10;87.27;;;47.37;;
10275;SDS011;5183;51.190;6.820;2022-12-16T09:15:00;81.60;;;46.80;;
10275;SDS011;5183;51.190;6.820;2022-12-16T09:17:51;84.73;;;48.20;;
10275;SDS011;5183;51.190;6.820;2022-12-16T09:20:36;85.23;;;47.73;;
10275;SDS011;5183;51.190;6.820;2022-12-16T09:23:20;83.00;;;46.63;;
10275;SDS011;5183;51.190;6.820;2022-12-16T09:26:04;90.53;;;48.07;;
10275;SDS011;5183;51.190;6.820;2022-12-16T09:28:48;88.50;;;48.67;;
10275;SDS011;5183;51.190;6.820;2022-12-16T09:31:32;94.83;;;49.00;;
10275;SDS011;5183;51.190;6.820;2022-12-16T09:34:17;90.77;;;50.47;;
10275;SDS011;5183;51.190;6.820;2022-12-16T09:36:58;89.67;;;50.27;;
10275;SDS011;5183;51.190;6.820;2022-12-16T09:39:42;94.07;;;49.07;;
10275;SDS011;5183;51.190;6.820;2022-12-16T09:42:27;90.37;;;48.23;;
10275;SDS011;5183;51.190;6.820;2022-12-16T09:45:24;93.10;;;49.83;;
10275;SDS011;5183;51.190;6.820;2022-12-16T09:48:17;95.67;;;49.47;;
10275;SDS011;5183;51.190;6.820;2022-12-16T09:51:11;97.40;;;51.27;;
10275;SDS011;5183;51.190;6.820;2022-12-16T09:54:05;92.03;;;50.87;;
10275;SDS011;5183;51.190;6.820;2022-12-16T09:56:54;94.53;;;50.23;;
10275;SDS011;5183;51.190;6.820;2022-12-16T09:59:40;91.37;;;47.90;;
10275;SDS011;5183;51.190;6.820;2022-12-16T10:02:30;97.50;;;51.50;;
10275;SDS011;5183;51.190;6.820;2022-12-16T10:05:17;91.67;;;49.57;;
10275;SDS011;5183;51.190;6.820;2022-12-16T10:08:08;91.57;;;47.37;;
10275;SDS011;5183;51.190;6.820;2022-12-16T10:10:59;96.00;;;49.17;;
10275;SDS011;5183;51.190;6.820;2022-12-16T10:13:47;107.17;;;53.80;;
10275;SDS011;5183;51.190;6.820;2022-12-16T10:16:39;108.27;;;53.40;;
10275;SDS011;5183;51.190;6.820;2022-12-16T10:19:29;99.13;;;50.03;;
10275;SDS011;5183;51.190;6.820;2022-12-16T10:22:22;106.17;;;53.77;;
10275;SDS011;5183;51.190;6.820;2022-12-16T10:25:20;103.20;;;51.13;;
10275;SDS011;5183;51.190;6.820;2022-12-16T10:28:09;111.17;;;52.97;;
10275;SDS011;5183;51.190;6.820;2022-12-16T10:30:59;102.17;;;52.53;;
10275;SDS011;5183;51.190;6.820;2022-12-16T10:33:44;108.77;;;51.77;;
10275;SDS011;5183;51.190;6.820;2022-12-16T10:36:31;109.47;;;55.20;;
10275;SDS011;5183;51.190;6.820;2022-12-16T10:39:21;118.97;;;58.43;;
10275;SDS011;5183;51.190;6.820;2022-12-16T10:42:15;119.87;;;57.60;;
10275;SDS011;5183;51.190;6.820;2022-12-16T10:45:03;113.03;;;56.47;;
10275;SDS011;5183;51.190;6.820;2022-12-16T10:47:56;133.73;;;64.50;;
10275;SDS011;5183;51.190;6.820;2022-12-16T10:50:42;126.77;;;62.37;;
10275;SDS011;5183;51.190;6.820;2022-12-16T10:53:26;130.33;;;63.43;;
10275;SDS011;5183;51.190;6.820;2022-12-16T10:56:12;128.87;;;63.53;;
10275;SDS011;5183;51.190;6.820;2022-12-16T10:59:08;123.87;;;60.33;;
10275;SDS011;5183;51.190;6.820;2022-12-16T11:01:56;135.60;;;70.90;;
10275;SDS011;5183;51.190;6.820;2022-12-16T11:04:42;129.33;;;58.47;;
10275;SDS011;5183;51.190;6.820;2022-12-16T11:07:29;115.27;;;57.67;;
10275;SDS011;5183;51.190;6.820;2022-12-16T11:13:25;122.60;;;59.17;;
10275;SDS011;5183;51.190;6.820;2022-12-16T11:16:13;119.93;;;58.37;;
10275;SDS011;5183;51.190;6.820;2022-12-16T11:18:59;123.47;;;58.37;;
10275;SDS011;5183;51.190;6.820;2022-12-16T11:21:44;112.30;;;56.37;;
10275;SDS011;5183;51.190;6.820;2022-12-16T11:24:29;117.27;;;60.10;;
10275;SDS011;5183;51.190;6.820;2022-12-16T11:27:14;114.23;;;58.30;;
10275;SDS011;5183;51.190;6.820;2022-12-16T11:30:15;122.97;;;61.27;;
10275;SDS011;5183;51.190;6.820;2022-12-16T11:33:05;115.33;;;57.63;;
10275;SDS011;5183;51.190;6.820;2022-12-16T11:35:57;113.63;;;58.40;;
10275;SDS011;5183;51.190;6.820;2022-12-16T11:38:48;118.43;;;59.97;;
10275;SDS011;5183;51.190;6.820;2022-12-16T11:41:35;118.10;;;59.33;;
10275;SDS011;5183;51.190;6.820;2022-12-16T11:44:24;114.80;;;57.40;;
10275;SDS011;5183;51.190;6.820;2022-12-16T11:47:15;123.30;;;55.00;;
10275;SDS011;5183;51.190;6.820;2022-12-16T11:50:08;136.03;;;48.60;;
10275;SDS011;5183;51.190;6.820;2022-12-16T11:52:56;104.40;;;49.60;;
10275;SDS011;5183;51.190;6.820;2022-12-16T11:55:43;105.73;;;49.20;;
10275;SDS011;5183;51.190;6.820;2022-12-16T11:58:32;102.23;;;47.00;;
10275;SDS011;5183;51.190;6.820;2022-12-16T12:01:19;96.27;;;44.67;;
10275;SDS011;5183;51.190;6.820;2022-12-16T12:04:21;96.60;;;46.30;;
10275;SDS011;5183;51.190;6.820;2022-12-16T12:07:12;97.27;;;44.47;;
10275;SDS011;5183;51.190;6.820;2022-12-16T12:13:44;91.23;;;43.80;;
10275;SDS011;5183;51.190;6.820;2022-12-16T12:16:42;104.27;;;47.73;;
10275;SDS011;5183;51.190;6.820;2022-12-16T12:19:49;117.80;;;48.90;;
10275;SDS011;5183;51.190;6.820;2022-12-16T12:22:52;112.80;;;47.73;;
10275;SDS011;5183;51.190;6.820;2022-12-16T12:25:45;117.37;;;49.97;;
10275;SDS011;5183;51.190;6.820;2022-12-16T12:28:37;118.10;;;47.20;;
10275;SDS011;5183;51.190;6.820;2022-12-16T12:31:33;123.73;;;49.63;;
10275;SDS011;5183;51.190;6.820;2022-12-16T12:34:25;129.90;;;46.43;;
10275;SDS011;5183;51.190;6.820;2022-12-16T12:37:19;122.13;;;47.03;;
10275;SDS011;5183;51.190;6.820;2022-12-16T12:40:15;121.30;;;45.97;;
10275;SDS011;5183;51.190;6.820;2022-12-16T12:43:09;119.67;;;49.10;;
10275;SDS011;5183;51.190;6.820;2022-12-16T12:46:05;116.80;;;47.03;;
10275;SDS011;5183;51.190;6.820;2022-12-16T12:48:58;96.33;;;41.43;;
10275;SDS011;5183;51.190;6.820;2022-12-16T12:52:00;115.60;;;44.97;;
10275;SDS011;5183;51.190;6.820;2022-12-16T12:54:56;94.10;;;41.40;;
10275;SDS011;5183;51.190;6.820;2022-12-16T12:57:48;113.83;;;44.30;;
10275;SDS011;5183;51.190;6.820;2022-12-16T13:00:35;144.30;;;44.83;;
10275;SDS011;5183;51.190;6.820;2022-12-16T13:03:27;87.73;;;38.73;;
10275;SDS011;5183;51.190;6.820;2022-12-16T13:06:17;101.33;;;40.13;;
10275;SDS011;5183;51.190;6.820;2022-12-16T13:09:20;103.53;;;40.73;;
10275;SDS011;5183;51.190;6.820;2022-12-16T13:12:21;95.30;;;38.07;;
10275;SDS011;5183;51.190;6.820;2022-12-16T13:15:09;116.17;;;36.70;;
10275;SDS011;5183;51.190;6.820;2022-12-16T13:24:41;93.33;;;36.53;;
10275;SDS011;5183;51.190;6.820;2022-12-16T13:27:29;97.20;;;37.17;;
10275;SDS011;5183;51.190;6.820;2022-12-16T13:30:33;76.87;;;34.03;;
10275;SDS011;5183;51.190;6.820;2022-12-16T13:33:27;112.43;;;37.93;;
10275;SDS011;5183;51.190;6.820;2022-12-16T13:36:13;85.83;;;33.90;;
10275;SDS011;5183;51.190;6.820;2022-12-16T13:39:17;99.60;;;37.37;;
10275;SDS011;5183;51.190;6.820;2022-12-16T13:42:05;82.50;;;32.30;;
10275;SDS011;5183;51.190;6.820;2022-12-16T13:45:22;120.23;;;34.33;;
10275;SDS011;5183;51.190;6.820;2022-12-16T13:48:26;94.53;;;33.37;;
10275;SDS011;5183;51.190;6.820;2022-12-16T13:54:35;148.47;;;33.60;;
10275;SDS011;5183;51.190;6.820;2022-12-16T13:57:27;80.63;;;31.70;;
10275;SDS011;5183;51.190;6.820;2022-12-16T14:00:31;168.73;;;35.80;;
10275;SDS011;5183;51.190;6.820;2022-12-16T14:03:21;82.43;;;33.57;;
10275;SDS011;5183;51.190;6.820;2022-12-16T14:06:11;105.27;;;32.53;;
10275;SDS011;5183;51.190;6.820;2022-12-16T14:09:01;108.43;;;33.00;;
10275;SDS011;5183;51.190;6.820;2022-12-16T14:11:48;100.50;;;35.50;;
10275;SDS011;5183;51.190;6.820;2022-12-16T14:14:37;99.80;;;29.90;;
10275;SDS011;5183;51.190;6.820;2022-12-16T14:17:34;114.17;;;33.83;;
10275;SDS011;5183;51.190;6.820;2022-12-16T14:20:26;73.00;;;28.57;;
10275;SDS011;5183;51.190;6.820;2022-12-16T14:23:20;115.90;;;31.80;;
10275;SDS011;5183;51.190;6.820;2022-12-16T14:26:12;56.17;;;25.83;;
10275;SDS011;5183;51.190;6.820;2022-12-16T14:28:58;57.03;;;26.53;;
10275;SDS011;5183;51.190;6.820;2022-12-16T14:31:44;52.67;;;24.40;;
10275;SDS011;5183;51.190;6.820;2022-12-16T14:34:30;117.90;;;30.40;;
10275;SDS011;5183;51.190;6.820;2022-12-16T14:37:22;64.80;;;25.50;;
10275;SDS011;5183;51.190;6.820;2022-12-16T14:40:17;75.30;;;28.67;;
10275;SDS011;5183;51.190;6.820;2022-12-16T14:43:03;71.63;;;27.83;;
10275;SDS011;5183;51.190;6.820;2022-12-16T14:45:54;75.53;;;28.67;;
10275;SDS011;5183;51.190;6.820;2022-12-16T14:48:39;76.13;;;29.83;;
10275;SDS011;5183;51.190;6.820;2022-12-16T14:51:25;89.93;;;31.40;;
10275;SDS011;5183;51.190;6.820;2022-12-16T14:54:18;99.07;;;29.33;;
10275;SDS011;5183;51.190;6.820;2022-12-16T14:57:07;70.13;;;26.13;;
10275;SDS011;5183;51.190;6.820;2022-12-16T15:00:02;70.73;;;27.43;;
10275;SDS011;5183;51.190;6.820;2022-12-16T15:02:54;66.67;;;26.43;;
10275;SDS011;5183;51.190;6.820;2022-12-16T15:05:40;64.77;;;26.53;;
10275;SDS011;5183;51.190;6.820;2022-12-16T15:08:27;73.90;;;26.37;;
10275;SDS011;5183;51.190;6.820;2022-12-16T15:11:16;84.87;;;29.73;;
10275;SDS011;5183;51.190;6.820;2022-12-16T15:14:03;78.40;;;29.63;;
10275;SDS011;5183;51.190;6.820;2022-12-16T15:16:49;77.90;;;28.93;;
10275;SDS011;5183;51.190;6.820;2022-12-16T15:19:37;89.50;;;30.70;;
10275;SDS011;5183;51.190;6.820;2022-12-16T15:22:26;107.33;;;40.30;;
10275;SDS011;5183;51.190;6.820;2022-12-16T15:25:18;105.90;;;38.87;;
10275;SDS011;5183;51.190;6.820;2022-12-16T15:28:04;169.17;;;40.27;;
10275;SDS011;5183;51.190;6.820;2022-12-16T15:30:48;106.93;;;36.13;;
10275;SDS011;5183;51.190;6.820;2022-12-16T15:33:33;97.20;;;32.00;;
10275;SDS011;5183;51.190;6.820;2022-12-16T15:36:24;101.27;;;35.57;;
10275;SDS011;5183;51.190;6.820;2022-12-16T15:39:15;114.77;;;37.13;;
10275;SDS011;5183;51.190;6.820;2022-12-16T15:42:04;135.27;;;37.43;;
10275;SDS011;5183;51.190;6.820;2022-12-16T15:45:00;149.57;;;39.83;;
10275;SDS011;5183;51.190;6.820;2022-12-16T15:47:47;131.83;;;38.03;;
10275;SDS011;5183;51.190;6.820;2022-12-16T15:50:44;130.17;;;36.97;;
10275;SDS011;5183;51.190;6.820;2022-12-16T15:53:36;149.20;;;39.90;;
10275;SDS011;5183;51.190;6.820;2022-12-16T15:56:23;127.43;;;37.53;;
10275;SDS011;5183;51.190;6.820;2022-12-16T15:59:14;128.37;;;39.07;;
10275;SDS011;5183;51.190;6.820;2022-12-16T16:02:05;135.80;;;40.47;;
10275;SDS011;5183;51.190;6.820;2022-12-16T16:04:57;151.27;;;43.37;;
10275;SDS011;5183;51.190;6.820;2022-12-16T16:07:42;148.27;;;42.73;;
10275;SDS011;5183;51.190;6.820;2022-12-16T16:10:26;149.50;;;42.10;;
10275;SDS011;5183;51.190;6.820;2022-12-16T16:13:10;140.50;;;40.87;;
10275;SDS011;5183;51.190;6.820;2022-12-16T16:15:56;152.97;;;43.43;;
10275;SDS011;5183;51.190;6.820;2022-12-16T16:18:40;149.43;;;43.73;;
10275;SDS011;5183;51.190;6.820;2022-12-16T16:21:25;153.33;;;42.83;;
10275;SDS011;5183;51.190;6.820;2022-12-16T16:24:10;157.07;;;43.30;;